• Join FlightAware (Why Join?)
  • Login
  • US Flag 
12:12PM EDT


 

Airport Tracker/Info


-or-


 

Live Flight TrackerFlight Track Log ✈ CES5863 ✈ 26-Oct-2013 ✈ ZUUU / CTU - ZUJZ / JZH

Flight Track Log - Related Links

Times and Time Zones

All times are in EDT time to prevent confusion due to time zone crossing. See the CES5863 flight status page for this flight to view local times or setup timezone preferences in your user account.

Time Position Orientation Groundspeed Altitude Reporting Facility
EDT Latitude Longitude Course Direction KTS MPH feet Rate Location/Type
04:15AM 30.5710 103.9430 319° Northwest 105 121  Level FlightAware
04:15AM 30.5890 103.9510 21° North 155 178 2,200 3,240 Climbing FlightAware
04:16AM 30.6120 103.9630 24° Northeast 177 204 3,400 1,860 Climbing FlightAware
04:16AM 30.6460 103.9790 22° Northeast 223 257 4,500 1,800 Climbing FlightAware
04:17AM 30.6890 103.9990 22° Northeast 265 305 5,800 2,580 Climbing FlightAware
04:18AM 30.7300 104.0470 45° Northeast 273 314 8,300 3,120 Climbing FlightAware
04:18AM 30.7700 104.0810 36° Northeast 285 328 10,300 3,000 Climbing FlightAware
04:19AM 30.8460 104.1390 33° Northeast 317 365 13,500 3,000 Climbing FlightAware
04:20AM 30.8940 104.1780 35° Northeast 335 386 15,500 3,240 Climbing FlightAware
04:21AM 30.9330 104.2080 33° Northeast 343 395 17,200 1,800 Climbing FlightAware
04:21AM 30.9910 104.2540 34° Northeast 383 441 17,700 1,020 Climbing FlightAware
04:22AM 31.0500 104.3010 34° Northeast 394 453 18,600 1,560 Climbing FlightAware
04:22AM 31.1040 104.3430 34° Northeast 398 458 19,700 660 Climbing FlightAware
04:23AM 31.1960 104.4090 32° Northeast 394 453 19,700  Level FlightAware
04:24AM 31.2540 104.4280 16° North 390 449 19,700  Level FlightAware
04:24AM 31.2900 104.4310 North 388 447 19,700  Level FlightAware
04:25AM 31.3810 104.4270 358° North 389 448 19,700 180 Level FlightAware
04:26AM 31.4540 104.4240 358° North 392 451 20,000 1,620 Climbing FlightAware
04:26AM 31.5080 104.4220 358° North 388 447 21,600 3,060 Climbing FlightAware
04:27AM 31.5760 104.4180 357° North 388 447 23,500 1,800 Climbing FlightAware
04:27AM 31.6260 104.4140 356° North 393 452 23,600 60 Climbing FlightAware
04:28AM 31.6990 104.4040 353° North 394 453 23,600  Level FlightAware
04:29AM 31.7600 104.3970 354° North 393 452 23,600  Level FlightAware
04:29AM 31.8370 104.3880 354° North 393 452 23,600  Level FlightAware
04:30AM 31.9000 104.3790 353° North 398 458 23,600  Level FlightAware
04:30AM 31.9570 104.3720 354° North 412 474 23,600  Level FlightAware
04:31AM 32.0300 104.3630 354° North 418 481 23,600  Level FlightAware
04:32AM 32.0890 104.3570 355° North 417 480 23,600  Level FlightAware
04:32AM 32.1580 104.3480 354° North 417 480 23,600  Level FlightAware
04:33AM 32.2310 104.3390 354° North 417 480 23,600  Level FlightAware
04:33AM 32.3070 104.3290 354° North 421 484 23,600  Level FlightAware
04:34AM 32.3860 104.3200 355° North 421 484 23,600  Level FlightAware
04:35AM 32.4520 104.3070 351° North 416 479 23,600  Level FlightAware
04:35AM 32.5110 104.2710 333° Northwest 408 470 23,600  Level FlightAware
04:36AM 32.5440 104.2390 321° Northwest 408 470 23,600  Level FlightAware
04:36AM 32.5890 104.1950 321° Northwest 408 470 23,600  Level FlightAware
04:37AM 32.6340 104.1520 321° Northwest 408 470 23,600  Level FlightAware
04:38AM 32.6800 104.1080 321° Northwest 408 470 23,600  Level FlightAware
04:38AM 32.7250 104.0650 321° Northwest 408 470 23,600  Level FlightAware
04:39AM 32.7700 104.0210 321° Northwest 408 470 23,600  Level FlightAware
04:39AM 32.8000 103.9930 322° Northwest 408 470 23,600  Level FlightAware
04:42AM 32.8405 103.7733 282° West  Level Estimated
04:43AM 32.8570 103.6830 282° West  Level Estimated
04:44AM 32.8570 103.6830 North  Level Estimated
04:45AM 32.8570 103.6830 North  Level Estimated
04:46AM 32.8570 103.6830 North  Level Estimated
04:47AM 32.8570 103.6830 North  Level Estimated
04:48AM 32.8570 103.6830 North  Level Estimated
04:49AM 32.8570 103.6830 North  Level Estimated
04:50AM 32.8570 103.6830 North  Level Estimated
04:51AM 32.8570 103.6830 North  Level Estimated
04:52AM 32.8570 103.6830 North  Level Estimated
04:53AM 32.8570 103.6830 North  Level Estimated
04:54AM 32.8570 103.6830 North  Level Estimated
04:55AM 32.8570 103.6830 North  Level Estimated
04:56AM 32.8570 103.6830 North  Level Estimated
04:57AM 32.8570 103.6830 North  Level Estimated